Time;durP1;ratioP1;P1;durP2;ratioP2;P2;SDS_P1;SDS_P2;PMS_P1;PMS_P2;Temp;Humidity;BMP_temperature;BMP_pressure;BME280_temperature;BME280_humidity;BME280_pressure;Samples;Min_cycle;Max_cycle;Signal;HPM_P1;HPM_P2
2022/02/13 00:00:56;;;;;;;19.02;6.13;;;7.10;99.90;;;;;;5066498;28;20080;-63
2022/02/13 00:03:23;;;;;;;14.02;6.50;;;7.10;99.90;;;;;;5068921;28;20384;-63
2022/02/13 00:05:50;;;;;;;17.52;6.50;;;7.20;99.90;;;;;;5070599;28;20088;-64
2022/02/13 00:08:17;;;;;;;14.13;5.93;;;7.20;99.90;;;;;;5070972;28;20053;-63
2022/02/13 00:11:04;;;;;;;17.63;6.55;;;7.20;99.90;;;;;;5071422;28;20054;-62
2022/02/13 00:13:31;;;;;;;12.05;5.00;;;7.20;99.90;;;;;;5070229;28;20083;-64
2022/02/13 00:15:58;;;;;;;11.85;5.95;;;7.20;99.90;;;;;;5070297;28;20127;-63
2022/02/13 00:18:24;;;;;;;14.35;5.15;;;7.20;99.90;;;;;;5069543;28;20076;-63
2022/02/13 00:20:51;;;;;;;18.88;4.93;;;7.20;99.90;;;;;;5069907;28;20459;-62
2022/02/13 00:23:18;;;;;;;10.00;4.63;;;7.20;99.90;;;;;;5069628;28;20123;-63
2022/02/13 00:25:45;;;;;;;12.45;5.40;;;7.20;99.90;;;;;;5071547;28;20483;-63
2022/02/13 00:28:13;;;;;;;17.98;6.20;;;7.30;99.90;;;;;;5070130;28;20051;-63
2022/02/13 00:30:46;;;;;;;17.45;4.90;;;7.30;99.90;;;;;;5069897;28;20040;-63
2022/02/13 00:33:14;;;;;;;13.32;5.18;;;7.30;99.90;;;;;;5069847;28;20143;-63
2022/02/13 00:35:41;;;;;;;19.30;5.60;;;7.30;99.90;;;;;;5068185;28;20043;-63
2022/02/13 00:38:09;;;;;;;11.32;5.65;;;7.40;99.90;;;;;;5070582;28;20091;-63
2022/02/13 00:40:35;;;;;;;27.23;5.80;;;7.30;99.90;;;;;;5069178;28;20048;-63
2022/02/13 00:43:02;;;;;;;10.15;5.03;;;7.30;99.90;;;;;;5069582;28;20622;-63
2022/02/13 00:45:29;;;;;;;11.85;5.25;;;7.30;99.90;;;;;;5069849;28;20049;-63
2022/02/13 00:47:56;;;;;;;11.18;5.38;;;7.30;99.90;;;;;;5069598;28;20044;-64
2022/02/13 00:50:23;;;;;;;11.73;4.80;;;7.30;99.90;;;;;;5068999;28;20052;-62
2022/02/13 00:52:50;;;;;;;23.05;7.32;;;7.30;99.90;;;;;;5069035;28;20076;-62
2022/02/13 00:55:16;;;;;;;21.48;5.82;;;7.30;99.90;;;;;;5069143;28;20092;-64
2022/02/13 00:57:43;;;;;;;17.25;5.30;;;7.30;99.90;;;;;;5069909;28;20127;-63
2022/02/13 01:00:11;;;;;;;18.70;5.47;;;7.30;99.90;;;;;;5068822;28;20127;-63
2022/02/13 01:02:37;;;;;;;12.48;4.43;;;7.30;99.90;;;;;;5068764;28;20052;-63
2022/02/13 01:05:04;;;;;;;11.70;5.13;;;7.30;99.90;;;;;;5068126;28;20079;-63
2022/02/13 01:07:31;;;;;;;17.45;5.60;;;7.30;99.90;;;;;;5069746;28;20493;-63
2022/02/13 01:09:58;;;;;;;18.17;7.15;;;7.30;99.90;;;;;;5050580;28;20350;-63
2022/02/13 01:12:24;;;;;;;11.70;5.65;;;7.30;99.90;;;;;;5067541;28;20132;-63
2022/02/13 01:14:51;;;;;;;15.23;6.30;;;7.30;99.90;;;;;;5068532;28;20163;-63
2022/02/13 01:17:18;;;;;;;13.77;5.30;;;7.40;99.90;;;;;;5051523;28;20526;-63
2022/02/13 01:19:45;;;;;;;17.13;6.00;;;7.40;99.90;;;;;;5069544;28;20139;-63
2022/02/13 01:22:12;;;;;;;15.02;5.60;;;7.40;99.90;;;;;;5068105;28;20119;-63
2022/02/13 01:24:38;;;;;;;17.40;5.30;;;7.30;99.90;;;;;;5068819;28;20102;-64
2022/02/13 01:27:05;;;;;;;15.63;5.55;;;7.40;99.90;;;;;;5068088;28;20056;-63
2022/02/13 01:29:32;;;;;;;12.50;5.35;;;7.30;99.90;;;;;;5068707;28;20097;-63
2022/02/13 01:31:59;;;;;;;17.25;6.72;;;7.40;99.90;;;;;;5068054;28;20044;-63
2022/02/13 01:34:27;;;;;;;21.45;6.22;;;7.40;99.90;;;;;;5066576;28;20048;-63
2022/02/13 01:36:54;;;;;;;13.60;5.53;;;7.40;99.90;;;;;;4715425;28;10000201;-63
2022/02/13 01:39:21;;;;;;;21.90;5.78;;;7.40;99.90;;;;;;5065970;28;20049;-63
2022/02/13 01:41:49;;;;;;;19.35;6.15;;;7.40;99.90;;;;;;5068692;28;20044;-62
2022/02/13 01:44:26;;;;;;;17.58;5.90;;;7.40;99.90;;;;;;5071163;28;20072;-62
2022/02/13 01:46:53;;;;;;;21.17;7.97;;;7.40;99.90;;;;;;5070548;28;20052;-63
2022/02/13 01:49:20;;;;;;;14.18;5.38;;;7.40;99.90;;;;;;5072763;28;20074;-65
2022/02/13 01:51:47;;;;;;;17.63;6.20;;;7.40;99.90;;;;;;5072290;28;20048;-63
2022/02/13 01:54:14;;;;;;;20.50;5.10;;;7.40;99.90;;;;;;5071699;28;20068;-63
2022/02/13 01:56:41;;;;;;;20.95;5.45;;;7.40;99.90;;;;;;5070235;28;20208;-64
2022/02/13 01:59:08;;;;;;;17.08;5.35;;;7.40;99.90;;;;;;5068334;28;20114;-63
2022/02/13 02:01:34;;;;;;;12.38;6.38;;;7.30;99.90;;;;;;5068098;28;20076;-63
2022/02/13 02:04:01;;;;;;;15.18;5.32;;;7.40;99.90;;;;;;5068246;28;20063;-63
2022/02/13 02:06:28;;;;;;;20.20;6.05;;;7.40;99.90;;;;;;5067620;28;20094;-64
2022/02/13 02:08:55;;;;;;;11.93;5.13;;;7.40;99.90;;;;;;5061501;28;20665;-63
2022/02/13 02:11:22;;;;;;;21.52;5.43;;;7.40;99.90;;;;;;5068027;28;20087;-63
2022/02/13 02:13:48;;;;;;;19.65;5.25;;;7.40;99.90;;;;;;5067680;28;20135;-64
2022/02/13 02:16:15;;;;;;;15.25;5.68;;;7.40;99.90;;;;;;5068634;28;20078;-63
2022/02/13 02:18:43;;;;;;;18.17;5.25;;;7.40;99.90;;;;;;5068615;28;20048;-64
2022/02/13 02:21:10;;;;;;;17.40;5.40;;;7.40;99.90;;;;;;5068807;28;20055;-63
2022/02/13 02:23:40;;;;;;;16.02;5.32;;;7.40;99.90;;;;;;5064510;28;20086;-64
2022/02/13 02:26:07;;;;;;;18.17;6.20;;;7.50;99.90;;;;;;5068700;28;20127;-63
2022/02/13 02:28:34;;;;;;;13.82;4.90;;;7.50;99.90;;;;;;5067638;28;20522;-63
2022/02/13 02:31:01;;;;;;;21.67;5.97;;;7.50;99.90;;;;;;5068945;28;20072;-64
2022/02/13 02:33:28;;;;;;;29.27;5.78;;;7.40;99.90;;;;;;5067900;28;20076;-64
2022/02/13 02:35:55;;;;;;;16.35;5.97;;;7.40;99.90;;;;;;5067875;28;20053;-64
2022/02/13 02:38:22;;;;;;;23.85;4.85;;;7.50;99.90;;;;;;5069387;28;20394;-64
2022/02/13 02:40:49;;;;;;;16.63;4.38;;;7.50;99.90;;;;;;5069241;28;20080;-64
2022/02/13 02:43:16;;;;;;;17.30;5.70;;;7.40;99.90;;;;;;5068532;28;20049;-63
2022/02/13 02:45:43;;;;;;;17.77;4.75;;;7.50;99.90;;;;;;5068471;28;20078;-63
2022/02/13 02:48:10;;;;;;;23.70;5.50;;;7.50;99.90;;;;;;5068797;28;20076;-63
2022/02/13 02:50:37;;;;;;;21.73;4.75;;;7.40;99.90;;;;;;5072215;28;20185;-63
2022/02/13 02:53:04;;;;;;;19.98;4.00;;;7.40;99.90;;;;;;5072564;28;20074;-63
2022/02/13 02:55:31;;;;;;;13.05;4.00;;;7.40;99.90;;;;;;5072299;28;20044;-65
2022/02/13 02:57:57;;;;;;;22.23;4.72;;;7.40;99.90;;;;;;5070943;28;20098;-64
2022/02/13 03:00:24;;;;;;;20.75;3.72;;;7.40;99.90;;;;;;5072521;28;20072;-64
2022/02/13 03:02:52;;;;;;;16.25;4.75;;;7.40;99.90;;;;;;5072108;28;20554;-64
2022/02/13 03:05:19;;;;;;;17.13;4.28;;;7.40;99.90;;;;;;5072159;28;20087;-64
2022/02/13 03:07:46;;;;;;;19.67;4.68;;;7.40;99.90;;;;;;5071134;28;20080;-63
2022/02/13 03:10:12;;;;;;;12.18;4.22;;;7.40;99.90;;;;;;5073545;28;20151;-64
2022/02/13 03:12:39;;;;;;;8.05;5.05;;;7.40;99.90;;;;;;5072770;28;20139;-63
2022/02/13 03:15:06;;;;;;;9.10;3.78;;;7.40;99.90;;;;;;5075362;28;20079;-64
2022/02/13 03:17:33;;;;;;;14.35;5.45;;;7.40;99.90;;;;;;5078750;28;20048;-64
2022/02/13 03:20:00;;;;;;;14.02;5.25;;;7.40;99.90;;;;;;5071935;28;20079;-63
2022/02/13 03:22:27;;;;;;;8.57;3.53;;;7.40;99.90;;;;;;5071949;28;20118;-64
2022/02/13 03:24:58;;;;;;;10.80;3.95;;;7.40;99.90;;;;;;5070405;28;20118;-63
2022/02/13 03:27:28;;;;;;;14.95;3.50;;;7.40;99.90;;;;;;5071920;28;20059;-63
2022/02/13 03:29:55;;;;;;;23.75;7.00;;;7.40;99.90;;;;;;5070887;28;20056;-63
2022/02/13 03:32:22;;;;;;;13.75;3.78;;;7.40;99.90;;;;;;5071588;28;20067;-63
2022/02/13 03:34:48;;;;;;;17.40;4.03;;;7.40;99.90;;;;;;5071802;28;20117;-63
2022/02/13 03:37:15;;;;;;;22.33;4.30;;;7.40;99.90;;;;;;5073231;28;20074;-63
2022/02/13 03:39:43;;;;;;;18.23;4.68;;;7.40;99.90;;;;;;5074375;28;20113;-63
2022/02/13 03:42:12;;;;;;;16.52;4.65;;;7.40;99.90;;;;;;5071142;28;20048;-64
2022/02/13 03:44:39;;;;;;;10.90;3.58;;;7.40;99.90;;;;;;5071668;28;20090;-63
2022/02/13 03:47:07;;;;;;;12.95;4.00;;;7.40;99.90;;;;;;5071293;28;20072;-63
2022/02/13 03:49:34;;;;;;;17.40;5.15;;;7.40;99.90;;;;;;5072130;28;20079;-65
2022/02/13 03:52:01;;;;;;;16.58;5.18;;;7.50;99.90;;;;;;5075209;28;20178;-63
2022/02/13 03:54:27;;;;;;;18.98;4.70;;;7.50;99.90;;;;;;5074409;28;20045;-63
2022/02/13 03:56:54;;;;;;;28.90;6.90;;;7.50;99.90;;;;;;5073789;28;20056;-63
2022/02/13 03:59:21;;;;;;;17.08;4.65;;;7.50;99.90;;;;;;5053222;28;20080;-63
2022/02/13 04:01:48;;;;;;;19.15;4.70;;;7.50;99.90;;;;;;5067344;28;20068;-63
2022/02/13 04:04:14;;;;;;;16.73;4.60;;;7.50;99.90;;;;;;5070452;28;20095;-63
2022/02/13 04:06:41;;;;;;;21.58;4.20;;;7.60;99.90;;;;;;5072205;28;20128;-63
2022/02/13 04:09:08;;;;;;;26.17;4.80;;;7.60;99.90;;;;;;5073441;28;20044;-64
2022/02/13 04:11:35;;;;;;;24.30;4.20;;;7.50;99.90;;;;;;5073033;28;20129;-63
2022/02/13 04:14:01;;;;;;;19.83;3.92;;;7.60;99.90;;;;;;5072951;28;20102;-64
2022/02/13 04:16:28;;;;;;;19.73;4.80;;;7.50;99.90;;;;;;5073538;28;20488;-63
2022/02/13 04:18:55;;;;;;;31.40;4.72;;;7.60;99.90;;;;;;5072949;28;20080;-63
2022/02/13 04:21:22;;;;;;;26.45;4.60;;;7.60;99.90;;;;;;5073700;28;20044;-62
2022/02/13 04:23:49;;;;;;;12.98;3.65;;;7.60;99.90;;;;;;5073376;28;20049;-64
2022/02/13 04:26:18;;;;;;;21.30;3.22;;;7.60;99.90;;;;;;5073625;28;20048;-64
2022/02/13 04:28:44;;;;;;;20.98;4.60;;;7.60;99.90;;;;;;5073288;28;20106;-64
2022/02/13 04:31:11;;;;;;;26.90;4.75;;;7.60;99.90;;;;;;5070477;28;20104;-64
2022/02/13 04:33:38;;;;;;;23.80;3.75;;;7.60;99.90;;;;;;5072164;28;20187;-63
2022/02/13 04:36:05;;;;;;;18.20;3.92;;;7.60;99.90;;;;;;5072040;28;20088;-63
2022/02/13 04:38:32;;;;;;;17.08;3.33;;;7.70;99.90;;;;;;5048577;28;20053;-63
2022/02/13 04:40:59;;;;;;;11.82;4.15;;;7.70;99.90;;;;;;5070724;28;20048;-63
2022/02/13 04:43:25;;;;;;;25.73;3.15;;;7.70;99.90;;;;;;5072774;28;20091;-63
2022/02/13 04:45:52;;;;;;;17.20;5.18;;;7.70;99.90;;;;;;5073166;28;20076;-63
2022/02/13 04:48:19;;;;;;;21.17;3.60;;;7.70;99.90;;;;;;5072048;28;20107;-62
2022/02/13 04:50:46;;;;;;;17.40;3.13;;;7.70;99.90;;;;;;5074308;28;20106;-65
2022/02/13 04:53:14;;;;;;;21.05;3.15;;;7.70;99.90;;;;;;5074577;28;20072;-64
2022/02/13 04:55:41;;;;;;;15.88;4.00;;;7.70;99.90;;;;;;5074492;28;20229;-63
2022/02/13 04:58:08;;;;;;;15.98;3.85;;;7.80;99.90;;;;;;5072726;28;20110;-63
2022/02/13 05:00:35;;;;;;;13.55;3.42;;;7.80;99.90;;;;;;5070406;28;20076;-63
2022/02/13 05:03:08;;;;;;;12.82;3.45;;;7.80;99.90;;;;;;5070896;28;20048;-63
2022/02/13 05:05:38;;;;;;;26.38;5.68;;;7.80;99.90;;;;;;5052144;28;20090;-63
2022/02/13 05:08:05;;;;;;;17.55;3.08;;;7.80;99.90;;;;;;5067920;28;20123;-63
2022/02/13 05:10:31;;;;;;;20.25;3.28;;;7.80;99.90;;;;;;5070097;28;20113;-63
2022/02/13 05:12:58;;;;;;;27.30;4.50;;;7.80;99.90;;;;;;5070544;28;20100;-64
2022/02/13 05:15:25;;;;;;;18.33;3.70;;;7.80;99.90;;;;;;5070046;28;20045;-63
2022/02/13 05:17:52;;;;;;;21.15;3.10;;;7.80;99.90;;;;;;5070949;28;20082;-66
2022/02/13 05:20:19;;;;;;;21.58;4.93;;;7.70;99.90;;;;;;5070268;28;20040;-63
2022/02/13 05:22:46;;;;;;;12.50;2.85;;;7.70;99.90;;;;;;5070189;28;20080;-63
2022/02/13 05:25:12;;;;;;;28.42;5.43;;;7.70;99.90;;;;;;5068354;28;20127;-63
2022/02/13 05:27:39;;;;;;;15.98;3.65;;;7.70;99.90;;;;;;5069276;28;20098;-63
2022/02/13 05:30:07;;;;;;;20.33;3.47;;;7.80;99.90;;;;;;5069134;28;20133;-64
2022/02/13 05:32:33;;;;;;;17.98;3.75;;;7.70;99.90;;;;;;5069139;28;20345;-63
2022/02/13 05:35:00;;;;;;;18.02;3.53;;;7.70;99.90;;;;;;5068651;28;20094;-63
2022/02/13 05:37:29;;;;;;;18.98;3.60;;;7.70;99.90;;;;;;5069015;28;20056;-63
2022/02/13 05:39:56;;;;;;;18.50;3.05;;;7.70;99.90;;;;;;5068218;28;20540;-64
2022/02/13 05:42:24;;;;;;;16.58;3.95;;;7.60;99.90;;;;;;5069878;28;20116;-63
2022/02/13 05:44:51;;;;;;;13.77;3.33;;;7.60;99.90;;;;;;5069610;28;20325;-63
2022/02/13 05:47:18;;;;;;;23.83;3.17;;;7.70;99.90;;;;;;5070086;28;20094;-63
2022/02/13 05:49:44;;;;;;;18.33;3.33;;;7.60;99.90;;;;;;5069707;28;20131;-64
2022/02/13 05:52:11;;;;;;;13.98;3.15;;;7.60;99.90;;;;;;5070817;28;20136;-63
2022/02/13 05:54:38;;;;;;;10.38;2.83;;;7.60;99.90;;;;;;5069904;28;20066;-63
2022/02/13 05:57:05;;;;;;;26.65;5.18;;;7.60;99.90;;;;;;5070385;28;20080;-63
2022/02/13 05:59:32;;;;;;;8.45;2.17;;;7.60;99.90;;;;;;5070056;28;20072;-63
2022/02/13 06:01:59;;;;;;;16.35;5.50;;;7.60;99.90;;;;;;5071018;28;20415;-63
2022/02/13 06:04:26;;;;;;;15.60;2.88;;;7.60;99.90;;;;;;5069574;28;20087;-63
2022/02/13 06:06:53;;;;;;;17.92;2.90;;;7.60;99.90;;;;;;5068952;28;20163;-64
2022/02/13 06:09:21;;;;;;;8.25;2.20;;;7.60;99.90;;;;;;5068293;28;20099;-63
2022/02/13 06:11:48;;;;;;;14.02;2.80;;;7.60;99.90;;;;;;5067863;28;20056;-63
2022/02/13 06:14:15;;;;;;;13.35;3.75;;;7.60;99.90;;;;;;5066760;28;20664;-64
2022/02/13 06:16:42;;;;;;;20.48;3.22;;;7.60;99.90;;;;;;5067746;28;20087;-64
2022/02/13 06:19:08;;;;;;;12.63;3.58;;;7.60;99.90;;;;;;5067769;28;20114;-63
2022/02/13 06:21:35;;;;;;;22.02;3.40;;;7.60;99.90;;;;;;5066646;28;20048;-64
2022/02/13 06:24:03;;;;;;;19.25;3.30;;;7.60;99.90;;;;;;5067676;28;20411;-64
2022/02/13 06:26:33;;;;;;;13.07;2.45;;;7.60;99.90;;;;;;5067018;28;20508;-63
2022/02/13 06:29:00;;;;;;;18.73;2.90;;;7.60;99.90;;;;;;5066713;28;20057;-63
2022/02/13 06:31:27;;;;;;;17.77;3.33;;;7.60;99.90;;;;;;5067610;28;20108;-63
2022/02/13 06:33:55;;;;;;;15.25;2.90;;;7.60;99.90;;;;;;5067085;28;20045;-63
2022/02/13 06:36:21;;;;;;;11.32;2.35;;;7.60;99.90;;;;;;5067635;28;20354;-63
2022/02/13 06:38:48;;;;;;;7.55;2.63;;;7.60;99.90;;;;;;5067190;28;20135;-64
2022/02/13 06:41:19;;;;;;;20.95;3.88;;;7.60;99.90;;;;;;5067548;28;20049;-63
2022/02/13 06:43:46;;;;;;;19.13;4.00;;;7.60;99.90;;;;;;5067901;28;20057;-63
2022/02/13 06:46:13;;;;;;;20.08;3.17;;;7.60;99.90;;;;;;5070920;28;20040;-64
2022/02/13 06:48:40;;;;;;;18.85;2.67;;;7.60;99.90;;;;;;5073049;28;20342;-64
2022/02/13 06:51:10;;;;;;;10.32;2.20;;;7.60;99.90;;;;;;5069056;28;20048;-63
2022/02/13 06:53:37;;;;;;;13.82;3.20;;;7.60;99.90;;;;;;5067682;28;20392;-63
2022/02/13 06:56:04;;;;;;;17.40;3.17;;;7.70;99.90;;;;;;5067528;28;20132;-64
2022/02/13 06:58:31;;;;;;;12.23;2.20;;;7.60;99.90;;;;;;5067301;28;20090;-63
2022/02/13 07:00:57;;;;;;;12.15;2.78;;;7.60;99.90;;;;;;5067458;28;20090;-64
2022/02/13 07:03:24;;;;;;;9.82;2.90;;;7.60;99.90;;;;;;5065721;28;20140;-63
2022/02/13 07:05:51;;;;;;;14.38;2.97;;;7.50;99.90;;;;;;5067791;28;20143;-64
2022/02/13 07:08:18;;;;;;;12.82;2.90;;;7.60;99.90;;;;;;5069198;28;20083;-64
2022/02/13 07:10:44;;;;;;;17.23;3.08;;;7.50;99.90;;;;;;5066873;28;20139;-63
2022/02/13 07:13:11;;;;;;;9.27;1.90;;;7.50;99.90;;;;;;5066624;28;20215;-63
2022/02/13 07:15:38;;;;;;;9.18;1.90;;;7.50;99.90;;;;;;5067203;28;20106;-65
2022/02/13 07:18:06;;;;;;;10.95;1.98;;;7.50;99.90;;;;;;5066043;28;20048;-63
2022/02/13 07:20:32;;;;;;;9.13;1.75;;;7.50;99.90;;;;;;5066627;28;20052;-63
2022/02/13 07:22:59;;;;;;;11.38;2.53;;;7.50;99.90;;;;;;5066541;28;20381;-63
2022/02/13 07:25:26;;;;;;;13.43;1.80;;;7.50;99.90;;;;;;5066980;28;20431;-63
2022/02/13 07:27:53;;;;;;;14.85;2.90;;;7.50;99.90;;;;;;5066248;28;20132;-63
2022/02/13 07:30:25;;;;;;;11.77;2.58;;;7.40;99.90;;;;;;5065676;28;20122;-63
2022/02/13 07:32:52;;;;;;;12.68;2.30;;;7.40;99.90;;;;;;5066264;28;20048;-63
2022/02/13 07:35:18;;;;;;;18.85;1.83;;;7.40;99.90;;;;;;5068028;28;20315;-63
2022/02/13 07:37:45;;;;;;;4.90;1.88;;;7.40;99.90;;;;;;5070302;28;20079;-62
2022/02/13 07:40:13;;;;;;;15.77;2.85;;;7.30;99.90;;;;;;5069388;28;20048;-63
2022/02/13 07:42:42;;;;;;;17.60;2.97;;;7.40;99.90;;;;;;5070003;28;20408;-63
2022/02/13 07:45:11;;;;;;;13.38;2.20;;;7.40;99.90;;;;;;5062691;28;20408;-63
2022/02/13 07:47:38;;;;;;;13.15;1.98;;;7.40;99.90;;;;;;5059539;28;20095;-63
2022/02/13 07:50:05;;;;;;;10.13;2.00;;;7.50;99.90;;;;;;5066965;28;20596;-62
2022/02/13 07:52:32;;;;;;;19.17;3.00;;;7.50;99.90;;;;;;5064328;28;20534;-62
2022/02/13 07:54:59;;;;;;;20.95;2.42;;;7.50;99.90;;;;;;5063460;28;20122;-63
2022/02/13 07:57:25;;;;;;;6.68;1.63;;;7.50;99.90;;;;;;5058785;28;20140;-63
2022/02/13 07:59:52;;;;;;;17.83;3.05;;;7.50;99.90;;;;;;5066089;28;20105;-64
2022/02/13 08:02:19;;;;;;;8.02;1.98;;;7.40;99.90;;;;;;5061646;28;20080;-65
2022/02/13 08:04:46;;;;;;;8.68;2.05;;;7.40;99.90;;;;;;5062397;28;20068;-63
2022/02/13 08:07:14;;;;;;;12.05;3.03;;;7.40;99.90;;;;;;5062619;28;20116;-63
2022/02/13 08:09:42;;;;;;;11.13;2.30;;;7.40;99.90;;;;;;5064059;28;20548;-63
2022/02/13 08:12:09;;;;;;;9.00;2.00;;;7.50;99.90;;;;;;5059380;28;20087;-63
2022/02/13 08:14:36;;;;;;;10.45;1.95;;;7.50;99.90;;;;;;5063180;28;20442;-64
2022/02/13 08:17:03;;;;;;;10.98;2.17;;;7.50;99.90;;;;;;5065920;28;20432;-64
2022/02/13 08:19:35;;;;;;;9.55;2.17;;;7.50;99.90;;;;;;5068770;28;20207;-63
2022/02/13 08:22:05;;;;;;;15.05;2.78;;;7.50;99.90;;;;;;5068291;28;20474;-63
2022/02/13 08:24:33;;;;;;;20.38;3.55;;;7.60;99.90;;;;;;5065696;28;20087;-63
2022/02/13 08:27:00;;;;;;;15.18;2.35;;;7.50;99.90;;;;;;5070018;28;20510;-63
2022/02/13 08:29:27;;;;;;;9.60;1.88;;;7.60;99.90;;;;;;5069814;28;20098;-64
2022/02/13 08:31:54;;;;;;;11.77;2.40;;;7.60;99.90;;;;;;5069405;28;20136;-64
2022/02/13 08:34:22;;;;;;;13.18;2.45;;;7.60;99.90;;;;;;5069817;28;20475;-64
2022/02/13 08:36:49;;;;;;;10.27;1.92;;;7.70;99.90;;;;;;5068980;28;20040;-65
2022/02/13 08:39:16;;;;;;;11.30;2.67;;;7.70;99.90;;;;;;5051533;28;20102;-65
2022/02/13 08:41:43;;;;;;;10.85;1.70;;;7.70;99.90;;;;;;5068173;28;20132;-64
2022/02/13 08:44:09;;;;;;;17.17;1.92;;;7.70;99.90;;;;;;5069865;28;20123;-64
2022/02/13 08:46:36;;;;;;;14.90;1.83;;;7.80;99.90;;;;;;5069664;28;20224;-64
2022/02/13 08:49:03;;;;;;;8.45;1.90;;;7.70;99.90;;;;;;5070549;28;20048;-69
2022/02/13 08:51:30;;;;;;;12.00;2.25;;;7.70;99.90;;;;;;5069992;28;20084;-65
2022/02/13 08:53:57;;;;;;;9.52;2.13;;;7.80;99.90;;;;;;5070227;28;20452;-65
2022/02/13 08:56:24;;;;;;;16.30;2.22;;;7.80;99.90;;;;;;5066537;28;20127;-65
2022/02/13 08:58:53;;;;;;;13.80;1.98;;;7.90;99.90;;;;;;5069707;28;20546;-64
2022/02/13 09:01:20;;;;;;;12.27;1.85;;;7.90;99.90;;;;;;5071240;28;20049;-64
2022/02/13 09:03:46;;;;;;;8.50;1.75;;;8.10;99.90;;;;;;5070562;28;20076;-64
2022/02/13 09:06:13;;;;;;;13.20;3.05;;;8.00;99.90;;;;;;5069195;28;20121;-64
2022/02/13 09:08:40;;;;;;;16.50;3.75;;;8.00;99.90;;;;;;5069466;28;20076;-64
2022/02/13 09:11:07;;;;;;;17.70;2.63;;;8.00;99.90;;;;;;5069719;28;20113;-65
2022/02/13 09:13:34;;;;;;;13.30;2.30;;;8.10;99.90;;;;;;5069935;28;20454;-65
2022/02/13 09:16:01;;;;;;;14.02;3.15;;;8.00;99.90;;;;;;5069348;28;20123;-65
2022/02/13 09:18:27;;;;;;;15.50;2.72;;;8.00;99.90;;;;;;5065272;28;20514;-64
2022/02/13 09:20:54;;;;;;;15.00;2.20;;;8.00;99.90;;;;;;4715338;28;9999647;-64
2022/02/13 09:23:21;;;;;;;15.90;2.17;;;8.00;99.90;;;;;;5062085;28;20072;-64
2022/02/13 09:25:48;;;;;;;16.17;2.90;;;8.00;99.90;;;;;;5063135;28;20102;-66
2022/02/13 09:28:15;;;;;;;12.13;2.53;;;8.00;99.90;;;;;;5050309;28;20564;-64
2022/02/13 09:30:46;;;;;;;12.98;3.05;;;8.10;99.90;;;;;;5051435;28;20476;-65
2022/02/13 09:33:19;;;;;;;16.17;2.75;;;8.10;99.90;;;;;;5054176;28;20065;-65
2022/02/13 09:35:47;;;;;;;8.38;2.35;;;8.10;99.90;;;;;;5055228;28;20053;-66
2022/02/13 09:38:16;;;;;;;13.40;3.15;;;8.10;99.90;;;;;;5058900;28;20579;-64
2022/02/13 09:40:49;;;;;;;17.60;2.70;;;8.20;99.90;;;;;;5064094;28;20545;-64
2022/02/13 09:43:20;;;;;;;13.93;3.38;;;8.10;99.90;;;;;;5060251;28;20044;-65
2022/02/13 09:45:51;;;;;;;27.20;4.95;;;8.10;99.90;;;;;;5064169;28;20045;-64
2022/02/13 09:48:22;;;;;;;11.68;2.35;;;8.10;99.90;;;;;;5054240;28;20146;-64
2022/02/13 09:50:49;;;;;;;9.95;2.75;;;8.20;99.90;;;;;;5055022;28;20048;-65
2022/02/13 09:53:18;;;;;;;12.80;3.17;;;8.20;99.90;;;;;;5065393;28;20044;-64
2022/02/13 09:55:45;;;;;;;11.40;2.40;;;8.30;99.90;;;;;;5064189;28;20049;-64
2022/02/13 09:58:12;;;;;;;17.52;4.65;;;8.30;99.90;;;;;;5065407;28;20527;-64
2022/02/13 10:00:50;;;;;;;10.98;2.50;;;8.30;99.90;;;;;;5065761;28;20109;-64
2022/02/13 10:03:37;;;;;;;12.32;2.20;;;8.30;99.90;;;;;;5065544;28;20134;-63
2022/02/13 10:06:14;;;;;;;15.02;2.13;;;8.40;99.90;;;;;;5064381;28;20496;-64
2022/02/13 10:08:51;;;;;;;13.07;3.08;;;8.40;99.90;;;;;;5066320;28;20076;-63
2022/02/13 10:11:24;;;;;;;11.65;2.42;;;8.50;99.90;;;;;;5071226;28;20084;-64
2022/02/13 10:13:59;;;;;;;8.73;2.50;;;8.50;99.90;;;;;;5061302;28;20044;-64
2022/02/13 10:16:28;;;;;;;13.23;2.90;;;8.50;99.90;;;;;;5066885;28;20080;-65
2022/02/13 10:19:16;;;;;;;19.77;6.57;;;8.60;99.90;;;;;;5064893;28;20087;-64
2022/02/13 10:21:51;;;;;;;11.63;3.42;;;8.60;99.90;;;;;;5063643;28;20078;-64
2022/02/13 10:24:27;;;;;;;16.42;3.53;;;8.60;99.80;;;;;;5067078;28;20068;-64
2022/02/13 10:26:56;;;;;;;12.57;3.22;;;8.70;99.90;;;;;;5064017;28;20337;-64
2022/02/13 10:29:27;;;;;;;15.77;2.67;;;8.60;99.70;;;;;;5062178;28;20075;-65
2022/02/13 10:32:11;;;;;;;11.02;2.75;;;8.60;99.70;;;;;;5066177;28;20060;-63
2022/02/13 10:34:39;;;;;;;16.10;3.20;;;8.60;99.50;;;;;;5064860;28;20079;-66
2022/02/13 10:37:06;;;;;;;14.18;3.17;;;8.60;99.50;;;;;;5067090;28;20215;-65
2022/02/13 10:39:43;;;;;;;18.73;5.20;;;8.60;99.80;;;;;;5061623;28;20084;-64
2022/02/13 10:42:13;;;;;;;16.85;4.30;;;8.60;99.40;;;;;;5064794;28;20127;-65
2022/02/13 10:44:40;;;;;;;16.38;4.38;;;8.50;99.70;;;;;;5061630;28;20129;-64
2022/02/13 10:47:21;;;;;;;16.05;3.10;;;8.50;99.60;;;;;;5064984;28;20076;-65
2022/02/13 10:49:48;;;;;;;19.35;3.42;;;8.50;99.70;;;;;;5062947;28;20077;-64
2022/02/13 10:52:15;;;;;;;10.00;2.28;;;8.40;99.70;;;;;;5061882;28;20131;-64
2022/02/13 10:54:42;;;;;;;9.10;3.17;;;8.40;99.50;;;;;;5061250;28;20139;-64
2022/02/13 10:57:09;;;;;;;10.68;2.90;;;8.50;99.70;;;;;;5063056;28;20545;-64
2022/02/13 10:59:36;;;;;;;10.25;2.38;;;8.40;99.70;;;;;;5060610;28;20083;-63
2022/02/13 11:02:03;;;;;;;17.63;3.00;;;8.40;99.60;;;;;;5062646;28;20080;-64
2022/02/13 11:04:30;;;;;;;20.95;2.70;;;8.40;99.70;;;;;;5063295;28;20542;-64
2022/02/13 11:06:57;;;;;;;11.32;2.97;;;8.30;99.70;;;;;;5062583;28;20591;-64
2022/02/13 11:09:26;;;;;;;19.02;3.90;;;8.40;99.70;;;;;;5063385;28;20131;-64
2022/02/13 11:11:56;;;;;;;10.95;3.03;;;8.40;99.80;;;;;;5066819;28;20069;-67
2022/02/13 11:14:47;;;;;;;18.92;3.30;;;8.40;99.70;;;;;;5069163;28;20481;-64
2022/02/13 11:17:26;;;;;;;13.25;3.15;;;8.40;99.80;;;;;;5065240;28;20044;-65
2022/02/13 11:19:53;;;;;;;11.48;3.53;;;8.40;99.80;;;;;;5066430;28;20090;-64
2022/02/13 11:22:20;;;;;;;13.05;3.67;;;8.40;99.90;;;;;;5070311;28;20123;-65
2022/02/13 11:24:53;;;;;;;9.02;2.78;;;8.40;99.60;;;;;;5070027;28;20045;-65
2022/02/13 11:27:21;;;;;;;8.35;2.78;;;8.40;99.70;;;;;;5070678;28;20102;-65
2022/02/13 11:29:50;;;;;;;8.18;3.40;;;8.40;99.70;;;;;;5070250;28;20056;-64
2022/02/13 11:32:35;;;;;;;13.68;2.72;;;8.40;99.70;;;;;;5070713;28;20048;-65
2022/02/13 11:35:12;;;;;;;15.60;3.33;;;8.50;99.60;;;;;;5069316;28;20052;-65
2022/02/13 11:37:49;;;;;;;14.20;3.10;;;8.50;99.60;;;;;;5066508;28;20049;-65
2022/02/13 11:40:35;;;;;;;7.97;2.55;;;8.50;99.60;;;;;;5067927;28;20126;-65
2022/02/13 11:43:07;;;;;;;9.80;2.33;;;8.50;99.40;;;;;;5067649;28;20053;-65
2022/02/13 11:45:42;;;;;;;8.20;2.22;;;8.50;99.60;;;;;;5067847;28;20048;-65
2022/02/13 11:48:37;;;;;;;19.85;2.60;;;8.60;99.60;;;;;;5064898;28;20081;-65
2022/02/13 11:51:05;;;;;;;9.48;3.30;;;8.50;99.60;;;;;;5065293;28;20118;-65
2022/02/13 11:53:34;;;;;;;15.48;2.30;;;8.50;99.50;;;;;;5067838;28;20048;-65
2022/02/13 11:56:20;;;;;;;9.27;2.47;;;8.50;99.60;;;;;;5066272;28;20487;-63
2022/02/13 11:58:47;;;;;;;8.63;2.67;;;8.50;99.50;;;;;;5065913;28;20079;-64
2022/02/13 12:01:32;;;;;;;11.52;3.05;;;8.50;99.60;;;;;;5065989;28;20149;-63
2022/02/13 12:03:59;;;;;;;12.98;3.15;;;8.60;99.80;;;;;;5067648;28;20048;-64
2022/02/13 12:06:30;;;;;;;11.73;2.95;;;8.60;99.90;;;;;;5049710;28;20515;-63
2022/02/13 12:09:02;;;;;;;8.57;2.97;;;8.60;99.70;;;;;;5067754;28;20110;-64
2022/02/13 12:11:30;;;;;;;9.93;4.07;;;8.60;99.80;;;;;;5066383;28;21928;-64
2022/02/13 12:13:58;;;;;;;12.98;3.72;;;8.60;99.70;;;;;;5064453;28;20072;-65
2022/02/13 12:16:28;;;;;;;13.60;3.08;;;8.70;99.70;;;;;;5067854;28;20827;-65
2022/02/13 12:18:55;;;;;;;14.07;3.80;;;8.80;99.70;;;;;;5066512;28;20087;-64
2022/02/13 12:21:26;;;;;;;13.90;2.63;;;8.80;99.50;;;;;;5066157;28;20049;-64
2022/02/13 12:24:01;;;;;;;14.98;2.80;;;8.90;99.50;;;;;;5067735;28;20059;-64
2022/02/13 12:26:30;;;;;;;14.88;2.45;;;8.80;99.30;;;;;;5065628;28;20076;-64
2022/02/13 12:29:00;;;;;;;13.40;2.67;;;8.80;99.40;;;;;;5067693;28;20496;-64
2022/02/13 12:31:27;;;;;;;11.60;2.95;;;8.80;99.30;;;;;;5047342;28;20234;-63
2022/02/13 12:33:55;;;;;;;12.32;2.92;;;8.90;99.50;;;;;;5059796;28;20446;-64
2022/02/13 12:36:23;;;;;;;12.57;2.90;;;9.00;99.40;;;;;;5064679;28;20095;-65
2022/02/13 12:38:56;;;;;;;15.73;2.35;;;9.10;99.60;;;;;;5062116;28;20136;-67
2022/02/13 12:41:25;;;;;;;14.90;2.37;;;9.10;99.10;;;;;;5064304;28;20075;-65
2022/02/13 12:43:53;;;;;;;17.55;3.15;;;9.10;99.10;;;;;;5060357;28;20053;-64
2022/02/13 12:46:20;;;;;;;9.88;2.70;;;9.20;99.00;;;;;;5064765;28;20492;-65
2022/02/13 12:48:48;;;;;;;18.05;2.92;;;9.20;98.80;;;;;;5061596;28;20103;-63
2022/02/13 12:51:25;;;;;;;16.83;3.53;;;9.30;98.80;;;;;;5065639;28;20052;-63
2022/02/13 12:53:52;;;;;;;13.32;2.60;;;9.40;98.70;;;;;;5059317;28;20076;-64